USCC Airport Information

Runway Information
Runway 09 Length 10499 ft width 197 ft
Elevation 759 ft Threshold 0 ft Heading 104
Runway 27 Length 10499 ft Width 197 ft
Elevation 737 ft Threshold 0 ft Heading 284
Airport Frequencies
Type APP Name CHELYABINS Frequency 124.7 MHZ
Type PMSV Name CHELYABINS Frequency 128.3 MHZ
Type TWR Name CHELYABINS Frequency 125.2 MHZ
Airport Navaids
Type NDB Name Gorevoye Frequency 106 KHZ
Type NDB Name Chelyabinsk Frequency 412 KHZ
Type NDB Name Chelyabinsk Frequency 452 KHZ
Type VOR-DME Name Chelyabinsk Frequency 113300 KHZ
Airport Weather Information & NOTAM
ADDS - METARS form results

(0838 UTC 23 September 2021)
Data provider http://aviationweather.gov/metar/data/
 
METAR text: USCC 230830Z 10002MPS 9999 FEW040 12/M01 Q1028 R09/000060 NOSIG RMK QFE750
Conditions at: USCC (CHELYABINSK-BALA, RU) observed 0830 UTC 23 September 2021
Temperature: 12.0°C (54°F)
Dewpoint: -1.0°C (30°F) [RH = 40%]
Pressure (altimeter): 30.35 inches Hg (1028.0 mb)
Winds: from the E (100 degrees) at 5 MPH (4 knots; 2.1 m/s)
Visibility: 6 or more miles (10+ km)
Ceiling: at least 12,000 feet AGL
Clouds: few clouds at 4000 feet AGL
Weather: no significant weather observed at this time

METAR text: USCC 230800Z 06002MPS 9999 FEW040 10/M02 Q1028 R27/000060 NOSIG RMK QFE751
Conditions at: USCC (CHELYABINSK-BALA, RU) observed 0800 UTC 23 September 2021
Temperature: 10.0°C (50°F)
Dewpoint: -2.0°C (28°F) [RH = 43%]
Pressure (altimeter): 30.35 inches Hg (1028.0 mb)
Winds: from the ENE (60 degrees) at 5 MPH (4 knots; 2.1 m/s)
Visibility: 6 or more miles (10+ km)
Ceiling: at least 12,000 feet AGL
Clouds: few clouds at 4000 feet AGL
Weather: no significant weather observed at this time

Forecast for: USCC (CHELYABINSK-BALA, RU)
Text: TAF USCC 230800Z 2309/2409 05003G10MPS 9999 SCT040
Forecast period: 0900 to 1500 UTC 23 September 2021
Forecast type: FROM: standard forecast or significant change
Winds: from the NE (50 degrees) at 7 MPH (6 knots; 3.1 m/s)
gusting to 22 MPH (19 knots; 9.8 m/s)
Visibility: 6 or more miles (10+ km)
Ceiling: at least 12,000 feet AGL
Clouds: scattered clouds at 4000 feet AGL
Weather: no significant weather forecast for this period
Text: FM231500 18003G10MPS 6000 SCT016
Forecast period: 1500 UTC 23 September 2021 to 0900 UTC 24 September 2021
Forecast type: FROM: standard forecast or significant change
Winds: from the S (180 degrees) at 7 MPH (6 knots; 3.1 m/s)
gusting to 22 MPH (19 knots; 9.8 m/s)
Visibility: 4 miles (6 km)
Ceiling: at least 12,000 feet AGL
Clouds: scattered clouds at 1600 feet AGL
Weather: no significant weather forecast for this period